Time;durP1;ratioP1;P1;durP2;ratioP2;P2;SDS_P1;SDS_P2;PMS_P1;PMS_P2;Temp;Humidity;BMP_temperature;BMP_pressure;BME280_temperature;BME280_humidity;BME280_pressure;Samples;Min_cycle;Max_cycle;Signal;HPM_P1;HPM_P2
2022/10/21 00:00:05;;;;;;;47.20;26.58;;;11.70;99.90;;;;;;5017701;28;20054;-71
2022/10/21 00:02:31;;;;;;;48.53;26.88;;;11.70;99.90;;;;;;4942145;28;199937;-71
2022/10/21 00:04:57;;;;;;;41.28;25.83;;;11.60;99.90;;;;;;5003819;28;20049;-70
2022/10/21 00:07:24;;;;;;;46.97;27.38;;;11.70;99.90;;;;;;4964885;28;142160;-70
2022/10/21 00:09:50;;;;;;;44.53;27.00;;;11.70;99.90;;;;;;5006846;28;20064;-70
2022/10/21 00:12:16;;;;;;;45.78;27.63;;;11.70;99.90;;;;;;4972576;28;189964;-70
2022/10/21 00:14:42;;;;;;;50.65;27.77;;;11.70;99.90;;;;;;5015200;28;20069;-70
2022/10/21 00:17:08;;;;;;;46.25;27.30;;;11.70;99.90;;;;;;4969282;28;208579;-70
2022/10/21 00:19:35;;;;;;;46.35;27.35;;;11.70;99.90;;;;;;5017174;28;20407;-70
2022/10/21 00:22:01;;;;;;;43.42;26.58;;;11.70;99.90;;;;;;4968946;28;206120;-71
2022/10/21 00:24:27;;;;;;;51.67;27.70;;;11.70;99.90;;;;;;5004252;28;20871;-70
2022/10/21 00:26:55;;;;;;;41.03;25.00;;;11.60;99.90;;;;;;4966726;28;209131;-71
2022/10/21 00:29:21;;;;;;;40.58;23.95;;;11.60;99.90;;;;;;5006514;28;20061;-71
2022/10/21 00:31:47;;;;;;;49.15;26.88;;;11.60;99.90;;;;;;4967312;28;208079;-71
2022/10/21 00:34:13;;;;;;;42.75;25.80;;;11.60;99.90;;;;;;4994536;28;20052;-71
2022/10/21 00:36:39;;;;;;;43.45;26.17;;;11.50;99.90;;;;;;4996852;28;212389;-71
2022/10/21 00:39:05;;;;;;;49.88;26.65;;;11.50;99.90;;;;;;4995724;28;20051;-71
2022/10/21 00:41:31;;;;;;;40.05;26.13;;;11.50;99.90;;;;;;5007115;28;20049;-71
2022/10/21 00:44:05;;;;;;;47.60;26.83;;;11.50;99.90;;;;;;4955803;28;191882;-71
2022/10/21 00:46:39;;;;;;;48.92;27.23;;;11.50;99.90;;;;;;5023204;28;20422;-71
2022/10/21 00:49:19;;;;;;;46.85;25.92;;;11.50;99.90;;;;;;4945890;28;208828;-71
2022/10/21 00:51:48;;;;;;;47.90;27.40;;;11.50;99.90;;;;;;4963473;28;219452;-70
2022/10/21 00:54:16;;;;;;;54.25;26.25;;;11.40;99.90;;;;;;5006387;28;20060;-71
2022/10/21 00:56:45;;;;;;;50.03;26.95;;;11.40;99.90;;;;;;4978151;28;207362;-71
2022/10/21 00:59:11;;;;;;;44.50;26.88;;;11.40;99.90;;;;;;4993443;28;20057;-70
2022/10/21 01:01:38;;;;;;;48.75;26.67;;;11.50;99.90;;;;;;5002389;28;207565;-70
2022/10/21 01:04:04;;;;;;;52.65;28.23;;;11.50;99.90;;;;;;4982059;28;277829;-70
2022/10/21 01:06:31;;;;;;;46.67;25.90;;;11.50;99.90;;;;;;5031642;28;20049;-70
2022/10/21 01:08:58;;;;;;;54.53;27.80;;;11.40;99.90;;;;;;4959712;28;193628;-70
2022/10/21 01:11:25;;;;;;;49.80;26.27;;;11.40;99.90;;;;;;5020063;28;20797;-70
2022/10/21 01:14:18;;;;;;;45.63;26.38;;;11.40;99.90;;;;;;4989350;28;207532;-70
2022/10/21 01:16:59;;;;;;;51.85;27.65;;;11.50;99.90;;;;;;4952752;28;170453;-70
2022/10/21 01:19:51;;;;;;;;;;;11.40;99.90;;;;;;5010767;28;20066;-70
2022/10/21 01:22:29;;;;;;;;;;;11.40;99.90;;;;;;4929712;28;131366;-71
2022/10/21 01:24:55;;;;;;;;;;;11.40;99.90;;;;;;4980147;28;19932;-71
2022/10/21 01:27:21;;;;;;;;;;;11.30;99.90;;;;;;4942940;28;172449;-71
2022/10/21 01:30:04;;;;;;;;;;;11.30;99.90;;;;;;4972148;28;19922;-71
2022/10/21 01:32:36;;;;;;;;;;;11.30;99.90;;;;;;4945705;28;205426;-70
2022/10/21 01:35:09;;;;;;;;;;;11.20;99.90;;;;;;4979807;28;19978;-70
2022/10/21 01:37:43;;;;;;;;;;;11.30;99.90;;;;;;4945984;28;96566;-71
2022/10/21 01:40:29;;;;;;;;;;;11.30;99.90;;;;;;4994840;28;19917;-70
2022/10/21 01:43:15;;;;;;;;;;;11.30;99.90;;;;;;4918095;28;193774;-70
2022/10/21 01:45:45;;;;;;;;;;;11.30;99.90;;;;;;4961134;28;19918;-72
2022/10/21 01:48:14;;;;;;;;;;;11.30;99.90;;;;;;4934037;28;162956;-71
2022/10/21 01:51:00;;;;;;;;;;;11.30;99.90;;;;;;4968278;28;19929;-71
2022/10/21 01:53:28;;;;;;;;;;;11.30;99.90;;;;;;4912810;28;170698;-72
2022/10/21 01:55:56;;;;;;;;;;;11.40;99.90;;;;;;4986738;28;19917;-72
2022/10/21 01:58:24;;;;;;;;;;;11.40;99.90;;;;;;4932316;28;182580;-72
2022/10/21 02:00:50;;;;;;;;;;;11.40;99.90;;;;;;5018150;28;20463;-72
2022/10/21 02:03:21;;;;;;;;;;;11.40;99.90;;;;;;4966224;28;208200;-72
2022/10/21 02:05:47;;;;;;;;;;;11.50;99.90;;;;;;5025044;28;20313;-72
2022/10/21 02:08:13;;;;;;;;;;;11.60;99.90;;;;;;4974785;28;175426;-72
2022/10/21 02:10:40;;;;;;;;;;;11.70;99.90;;;;;;5015026;28;19944;-71
2022/10/21 02:13:09;;;;;;;;;;;11.70;99.90;;;;;;4976587;28;157051;-72
2022/10/21 02:15:36;;;;;;;;;;;11.70;99.90;;;;;;5015597;28;19921;-72
2022/10/21 02:18:04;;;;;;;;;;;11.90;99.90;;;;;;4943504;28;212293;-72
2022/10/21 02:20:32;;;;;;;;;;;11.90;99.90;;;;;;4997724;28;19917;-72
2022/10/21 02:22:59;;;;;;;;;;;12.00;99.90;;;;;;4952756;28;194371;-72
2022/10/21 02:25:26;;;;;;;;;;;12.00;99.90;;;;;;5018453;28;19917;-72
2022/10/21 02:27:53;;;;;;;;;;;12.10;99.90;;;;;;4964290;28;208989;-72
2022/10/21 02:30:19;;;;;;;;;;;12.10;99.90;;;;;;5016998;28;19925;-72
2022/10/21 02:32:48;;;;;;;;;;;12.20;99.90;;;;;;4984519;28;194878;-72
2022/10/21 02:35:14;;;;;;;;;;;12.20;99.90;;;;;;5009975;28;19940;-72
2022/10/21 02:38:06;;;;;;;;;;;12.20;99.90;;;;;;4970217;28;155869;-72
2022/10/21 02:40:35;;;;;;;;;;;12.20;99.90;;;;;;4999306;28;19927;-73
2022/10/21 02:43:09;;;;;;;;;;;12.30;99.90;;;;;;4976906;28;136840;-73
2022/10/21 02:45:37;;;;;;;;;;;12.30;99.90;;;;;;5016151;28;19921;-73
2022/10/21 02:48:05;;;;;;;;;;;12.30;99.90;;;;;;4964318;28;212142;-73
2022/10/21 02:50:31;;;;;;;;;;;12.30;99.90;;;;;;5022994;28;19917;-73
2022/10/21 02:52:57;;;;;;;;;;;12.30;99.90;;;;;;4974307;28;151965;-73
2022/10/21 02:55:23;;;;;;;;;;;12.30;99.90;;;;;;4998890;28;21633;-73
2022/10/21 02:57:49;;;;;;;;;;;12.30;99.90;;;;;;4952569;28;191407;-73
2022/10/21 03:00:15;;;;;;;;;;;12.30;99.90;;;;;;5036217;28;22412;-73
2022/10/21 03:02:41;;;;;;;;;;;12.30;99.90;;;;;;4965547;28;207974;-72
2022/10/21 03:05:08;;;;;;;;;;;12.30;99.90;;;;;;5026436;28;19936;-72
2022/10/21 03:07:34;;;;;;;;;;;12.30;99.90;;;;;;4970634;28;198489;-71
2022/10/21 03:10:00;;;;;;;;;;;12.30;99.90;;;;;;5026298;28;19928;-70
2022/10/21 03:12:26;;;;;;;;;;;12.30;99.90;;;;;;4985094;28;209194;-70
2022/10/21 03:14:52;;;;;;;;;;;12.30;99.90;;;;;;5004521;28;20018;-71
2022/10/21 03:17:18;;;;;;;;;;;12.40;99.90;;;;;;4975204;28;207135;-70
2022/10/21 03:19:44;;;;;;;;;;;12.40;99.90;;;;;;5052269;28;20007;-71
2022/10/21 03:22:10;;;;;;;;;;;12.40;99.90;;;;;;4960982;28;179867;-70
2022/10/21 03:24:36;;;;;;;;;;;12.40;99.90;;;;;;5001355;28;19922;-70
2022/10/21 03:27:02;;;;;;;;;;;12.40;99.90;;;;;;4969310;28;221882;-71
2022/10/21 03:29:28;;;;;;;;;;;12.40;99.90;;;;;;5003522;28;19925;-71
2022/10/21 03:31:54;;;;;;;;;;;12.40;99.90;;;;;;4968029;28;207291;-70
2022/10/21 03:34:20;;;;;;;;;;;12.40;99.90;;;;;;5004386;28;19921;-70
2022/10/21 03:36:46;;;;;;;;;;;12.30;99.90;;;;;;4975693;28;211335;-70
2022/10/21 03:39:12;;;;;;;;;;;12.30;99.90;;;;;;4993789;28;20377;-70
2022/10/21 03:41:38;;;;;;;;;;;12.40;99.90;;;;;;4998473;28;207759;-69
2022/10/21 03:44:04;;;;;;;;;;;12.40;99.90;;;;;;4954270;28;20314;-70
2022/10/21 03:46:30;;;;;;;;;;;12.30;99.90;;;;;;5014857;28;19928;-69
2022/10/21 03:48:56;;;;;;;;;;;12.30;99.90;;;;;;4953497;28;186546;-70
2022/10/21 03:51:22;;;;;;;;;;;12.30;99.90;;;;;;4997831;28;20012;-70
2022/10/21 03:53:48;;;;;;;;;;;12.30;99.90;;;;;;4962736;28;205157;-69
2022/10/21 03:56:14;;;;;;;;;;;12.20;99.90;;;;;;5045901;28;19929;-70
2022/10/21 03:58:40;;;;;;;;;;;12.20;99.90;;;;;;4958686;28;215064;-69
2022/10/21 04:01:09;;;;;;;;;;;12.20;99.90;;;;;;5023463;28;19921;-68
2022/10/21 04:03:35;;;;;;;;;;;12.20;99.90;;;;;;4974042;28;206716;-69
2022/10/21 04:06:01;;;;;;;;;;;12.20;99.90;;;;;;5045991;28;20398;-69
2022/10/21 04:08:27;;;;;;;;;;;12.20;99.90;;;;;;4958984;28;44221;-69
2022/10/21 04:10:55;;;;;;;;;;;12.20;99.90;;;;;;5016548;28;19927;-69
2022/10/21 04:13:21;;;;;;;;;;;12.10;99.90;;;;;;4961814;28;167144;-69
2022/10/21 04:15:47;;;;;;;;;;;12.10;99.90;;;;;;5002220;28;20393;-69
2022/10/21 04:18:13;;;;;;;;;;;12.00;99.90;;;;;;4998483;28;214808;-70
2022/10/21 04:20:39;;;;;;;;;;;12.00;99.90;;;;;;5003087;28;19932;-69
2022/10/21 04:23:05;;;;;;;;;;;12.00;99.90;;;;;;4961062;28;165295;-70
2022/10/21 04:25:31;;;;;;;;;;;11.90;99.90;;;;;;5020031;28;20003;-70
2022/10/21 04:27:57;;;;;;;;;;;11.80;99.90;;;;;;4957634;28;207273;-69
2022/10/21 04:30:23;;;;;;;;;;;11.80;99.90;;;;;;5008801;28;19921;-69
2022/10/21 04:32:49;;;;;;;;;;;11.80;99.90;;;;;;4967101;28;208624;-70
2022/10/21 04:35:16;;;;;;;;;;;11.70;99.90;;;;;;5017087;28;19925;-69
2022/10/21 04:37:43;;;;;;;;;;;11.70;99.90;;;;;;4970876;28;206225;-69
2022/10/21 04:40:09;;;;;;;;;;;11.70;99.90;;;;;;5015631;28;19921;-69
2022/10/21 04:42:35;;;;;;;;;;;11.70;99.90;;;;;;4977405;28;119638;-69
2022/10/21 04:45:01;;;;;;;;;;;11.70;99.90;;;;;;5018513;28;20002;-70
2022/10/21 04:47:27;;;;;;;;;;;11.70;99.90;;;;;;4973374;28;174454;-70
2022/10/21 04:49:53;;;;;;;;;;;11.70;99.90;;;;;;5015707;28;19921;-71
2022/10/21 04:52:19;;;;;;;;;;;11.70;99.90;;;;;;4977629;28;208474;-70
2022/10/21 04:54:45;;;;;;;;;;;11.70;99.90;;;;;;5052812;28;19925;-69
2022/10/21 04:57:12;;;;;;;;;;;11.70;99.90;;;;;;4977637;28;208000;-70
2022/10/21 04:59:38;;;;;;;;;;;11.70;99.90;;;;;;5033475;28;19928;-69
2022/10/21 05:02:04;;;;;;;;;;;11.70;99.90;;;;;;4962101;28;208511;-70
2022/10/21 05:04:30;;;;;;;;;;;11.80;99.90;;;;;;5003036;28;19921;-70
2022/10/21 05:06:56;;;;;;;;;;;11.70;99.90;;;;;;4964231;28;207820;-69
2022/10/21 05:09:22;;;;;;;;;;;11.80;99.90;;;;;;5000639;28;19940;-70
2022/10/21 05:11:48;;;;;;;;;;;11.80;99.90;;;;;;4966298;28;207417;-70
2022/10/21 05:14:14;;;;;;;;;;;11.80;99.90;;;;;;5003356;28;19931;-70
2022/10/21 05:16:39;;;;;;;;;;;11.80;99.90;;;;;;4990340;28;208218;-70
2022/10/21 05:19:05;;;;;;;;;;;11.80;99.90;;;;;;5000801;28;19932;-70
2022/10/21 05:21:31;;;;;;;;;;;11.90;99.90;;;;;;5017843;28;19921;-70
2022/10/21 05:23:57;;;;;;;;;;;11.90;99.90;;;;;;4993915;28;205599;-70
2022/10/21 05:26:23;;;;;;;;;;;11.90;99.90;;;;;;5020877;28;19925;-70
2022/10/21 05:28:49;;;;;;;;;;;11.90;99.90;;;;;;4966639;28;209245;-69
2022/10/21 05:31:15;;;;;;;;;;;11.90;99.90;;;;;;5031305;28;19921;-70
2022/10/21 05:33:41;;;;;;;;;;;12.00;99.90;;;;;;4994374;28;208167;-70
2022/10/21 05:36:07;;;;;;;;;;;11.90;99.90;;;;;;5038476;28;19928;-70
2022/10/21 05:38:33;;;;;;;;;;;11.90;99.90;;;;;;4983724;28;154072;-70
2022/10/21 05:40:59;;;;;;;;;;;11.90;99.90;;;;;;5025918;28;19921;-71
2022/10/21 05:43:26;;;;;;;;;;;11.90;99.90;;;;;;4981739;28;95683;-70
2022/10/21 05:45:52;;;;;;;;;;;11.90;99.90;;;;;;5021807;28;19917;-70
2022/10/21 05:48:19;;;;;;;;;;;11.80;99.90;;;;;;4988944;28;217549;-70
2022/10/21 05:50:45;;;;;;;;;;;11.80;99.90;;;;;;5027749;28;20295;-70
2022/10/21 05:53:11;;;;;;;;;;;11.80;99.90;;;;;;5009173;28;150889;-68
2022/10/21 05:55:37;;;;;;;;;;;11.80;99.90;;;;;;5028546;28;20425;-70
2022/10/21 05:58:03;;;;;;;;;;;11.80;99.90;;;;;;4982938;28;139539;-70
2022/10/21 06:00:29;;;;;;;;;;;11.80;99.90;;;;;;5029930;28;19921;-69
2022/10/21 06:02:55;;;;;;;;;;;11.70;99.90;;;;;;4972751;28;139744;-69
2022/10/21 06:05:21;;;;;;;;;;;11.70;99.90;;;;;;5028614;28;19944;-69
2022/10/21 06:07:47;;;;;;;;;;;11.70;99.90;;;;;;4987528;28;136749;-68
2022/10/21 06:10:15;;;;;;;;;;;11.70;99.90;;;;;;5027636;28;19963;-70
2022/10/21 06:12:41;;;;;;;;;;;11.70;99.90;;;;;;4972903;28;208317;-70
2022/10/21 06:15:07;;;;;;;;;;;11.70;99.90;;;;;;5023232;28;19925;-68
2022/10/21 06:17:33;;;;;;;;;;;11.60;99.90;;;;;;4979617;28;185464;-69
2022/10/21 06:20:00;;;;;;;;;;;11.70;99.90;;;;;;5002613;28;19939;-69
2022/10/21 06:22:29;;;;;;;;;;;11.70;99.90;;;;;;4972984;28;177667;-69
2022/10/21 06:24:55;;;;;;;;;;;11.70;99.90;;;;;;5017811;28;19928;-69
2022/10/21 06:27:21;;;;;;;;;;;11.70;99.90;;;;;;4977592;28;145690;-70
2022/10/21 06:29:47;;;;;;;;;;;11.70;99.90;;;;;;5020365;28;19917;-70
2022/10/21 06:32:12;;;;;;;;;;;11.70;99.90;;;;;;4984603;28;27259;-70
2022/10/21 06:34:38;;;;;;;;;;;11.70;99.90;;;;;;5030219;28;19923;-68
2022/10/21 06:37:04;;;;;;;;;;;11.70;99.90;;;;;;4976749;28;207803;-69
2022/10/21 06:39:30;;;;;;;;;;;11.70;99.90;;;;;;5030579;28;19917;-69
2022/10/21 06:41:56;;;;;;;;;;;11.80;99.90;;;;;;4977345;28;206680;-68
2022/10/21 06:44:22;;;;;;;;;;;11.70;99.90;;;;;;5026959;28;19921;-69
2022/10/21 06:46:48;;;;;;;;;;;11.70;99.90;;;;;;5006668;28;212042;-69
2022/10/21 06:49:14;;;;;;;;;;;11.70;99.90;;;;;;5026033;28;19928;-69
2022/10/21 06:51:40;;;;;;;;;;;11.70;99.90;;;;;;4984808;28;210248;-69
2022/10/21 06:54:05;;;;;;;;;;;11.70;99.90;;;;;;4995483;28;19923;-69
2022/10/21 06:56:31;;;;;;;;;;;11.70;99.90;;;;;;5027322;28;19985;-69
2022/10/21 06:58:57;;;;;;;;;;;11.70;99.90;;;;;;5011672;28;208754;-69
2022/10/21 07:01:25;;;;;;;;;;;11.70;99.90;;;;;;5022999;28;19925;-69
2022/10/21 07:03:51;;;;;;;;;;;11.70;99.90;;;;;;4980638;28;209664;-69
2022/10/21 07:06:17;;;;;;;;;;;11.70;99.90;;;;;;5019124;28;19925;-69
2022/10/21 07:08:43;;;;;;;;;;;11.70;99.90;;;;;;4963645;28;207203;-69
2022/10/21 07:11:09;;;;;;;;;;;11.70;99.90;;;;;;5022936;28;20431;-70
2022/10/21 07:13:35;;;;;;;;;;;11.70;99.90;;;;;;4964007;28;192171;-69
2022/10/21 07:16:05;;;;;;;;;;;11.70;99.90;;;;;;5058461;28;19979;-68
2022/10/21 07:18:32;;;;;;;;;;;11.80;99.90;;;;;;4979890;28;206844;-69
2022/10/21 07:21:06;;;;;;;;;;;11.80;99.90;;;;;;5009972;28;19974;-70
2022/10/21 07:23:32;;;;;;;;;;;11.80;99.90;;;;;;4987584;28;214279;-69
2022/10/21 07:25:58;;;;;;;;;;;11.80;99.90;;;;;;5002371;28;20562;-70
2022/10/21 07:28:24;;;;;;;;;;;11.80;99.90;;;;;;4990496;28;209043;-69
2022/10/21 07:30:50;;;;;;;;;;;11.90;99.90;;;;;;5009618;28;19917;-69
2022/10/21 07:33:16;;;;;;;;;;;11.80;99.90;;;;;;4987876;28;84410;-69
2022/10/21 07:35:42;;;;;;;;;;;11.90;99.90;;;;;;5025128;28;19925;-69
2022/10/21 07:38:07;;;;;;;;;;;11.90;99.90;;;;;;4982838;28;137415;-69
2022/10/21 07:40:37;;;;;;;;;;;11.90;99.90;;;;;;5009568;28;19933;-69
2022/10/21 07:43:03;;;;;;;;;;;11.90;99.90;;;;;;4971198;28;149877;-71
2022/10/21 07:45:29;;;;;;;;;;;12.00;99.90;;;;;;5032529;28;20287;-69
2022/10/21 07:47:55;;;;;;;;;;;12.00;99.90;;;;;;4964396;28;207786;-70
2022/10/21 07:50:21;;;;;;;;;;;12.10;99.90;;;;;;5022902;28;20389;-70
2022/10/21 07:52:47;;;;;;;;;;;12.10;99.90;;;;;;4997021;28;211043;-69
2022/10/21 07:55:14;;;;;;;;;;;12.10;99.90;;;;;;5051535;28;19924;-69
2022/10/21 07:57:41;;;;;;;;;;;12.20;99.90;;;;;;5007712;28;183430;-69
2022/10/21 08:00:08;;;;;;;;;;;12.30;99.90;;;;;;5028678;28;19921;-70
2022/10/21 08:02:34;;;;;;;;;;;12.30;99.90;;;;;;4966136;28;165837;-70
2022/10/21 08:05:00;;;;;;;;;;;12.40;99.90;;;;;;5000015;28;19925;-70
2022/10/21 08:07:26;;;;;;;;;;;12.50;99.90;;;;;;4983865;28;107231;-70
2022/10/21 08:09:52;;;;;;;;;;;12.60;99.90;;;;;;5054712;28;19921;-70
2022/10/21 08:12:17;;;;;;;;;;;12.60;99.90;;;;;;4980299;28;112545;-70
2022/10/21 08:14:43;;;;;;;;;;;12.80;99.90;;;;;;5019452;28;19925;-70
2022/10/21 08:17:09;;;;;;;;;;;12.80;99.90;;;;;;4978484;28;206945;-70
2022/10/21 08:19:35;;;;;;;;;;;13.00;99.90;;;;;;5008730;28;20305;-70
2022/10/21 08:22:01;;;;;;;;;;;13.10;99.90;;;;;;4982721;28;126753;-69
2022/10/21 08:24:27;;;;;;;;;;;13.20;99.90;;;;;;5022687;28;19941;-70
2022/10/21 08:26:53;;;;;;;;;;;13.40;99.90;;;;;;4960678;28;207321;-68
2022/10/21 08:29:19;;;;;;;;;;;13.50;99.90;;;;;;5040975;28;19917;-70
2022/10/21 08:31:45;;;;;;;;;;;13.60;99.90;;;;;;5006194;28;218773;-70
2022/10/21 08:34:11;;;;;;;;;;;13.60;99.90;;;;;;5023176;28;19917;-70
2022/10/21 08:36:37;;;;;;;;;;;13.80;99.90;;;;;;4996441;28;208309;-70
2022/10/21 08:39:04;;;;;;;;;;;13.90;99.90;;;;;;4987106;28;207286;-70
2022/10/21 08:41:29;;;;;;;;;;;14.00;99.90;;;;;;5028046;28;19917;-70
2022/10/21 08:44:10;;;;;;;;;;;14.00;99.90;;;;;;4972022;28;212381;-70
2022/10/21 08:46:43;;;;;;;;;;;14.10;99.90;;;;;;5014142;28;208312;-69
2022/10/21 08:49:18;;;;;;;;;;;14.20;99.90;;;;;;4977354;28;50605;-70
2022/10/21 08:51:48;;;;;;;;;;;14.30;99.90;;;;;;4978257;28;215790;-70
2022/10/21 08:54:28;;;;;;;;;;;14.30;99.90;;;;;;5030208;28;19928;-70
2022/10/21 08:56:55;;;;;;;;;;;14.40;99.90;;;;;;4970138;28;214626;-70
2022/10/21 08:59:22;;;;;;;;;;;14.50;99.90;;;;;;5021960;28;19928;-70
2022/10/21 09:01:57;;;;;;;;;;;14.60;99.90;;;;;;4974238;28;207871;-70
2022/10/21 09:04:32;;;;;;;;;;;14.70;99.90;;;;;;5028598;28;19928;-70
2022/10/21 09:06:58;;;;;;;;;;;14.80;99.90;;;;;;4987243;28;208301;-70
2022/10/21 09:09:42;;;;;;;;;;;14.80;99.90;;;;;;5045881;28;19917;-70
2022/10/21 09:12:15;;;;;;;;;;;14.80;99.90;;;;;;4968424;28;188790;-69
2022/10/21 09:14:56;;;;;;;;;;;14.90;99.90;;;;;;5010797;28;20382;-70
2022/10/21 09:17:22;;;;;;;;;;;14.90;99.90;;;;;;4980002;28;147970;-70
2022/10/21 09:19:54;;;;;;;;;;;15.00;99.90;;;;;;5025944;28;19917;-69
2022/10/21 09:22:20;;;;;;;;;;;15.10;99.90;;;;;;4976469;28;183149;-69
2022/10/21 09:24:49;;;;;;;;;;;15.10;99.90;;;;;;5024073;28;20267;-71
2022/10/21 09:27:16;;;;;;;;;;;15.20;99.90;;;;;;5003988;28;200517;-69
2022/10/21 09:29:43;;;;;;;;;;;15.30;99.90;;;;;;5029443;28;19917;-70
2022/10/21 09:32:20;;;;;;;;;;;15.30;99.90;;;;;;4973832;28;207016;-68
2022/10/21 09:34:49;;;;;;;;;;;15.30;99.90;;;;;;5005787;28;20286;-69
2022/10/21 09:37:23;;;;;;;;;;;15.30;99.90;;;;;;4979626;28;228498;-69
2022/10/21 09:39:54;;;;;;;;;;;15.50;99.90;;;;;;5029356;28;19975;-70
2022/10/21 09:42:20;;;;;;;;;;;15.50;99.90;;;;;;4980220;28;226402;-69
2022/10/21 09:44:46;;;;;;;;;;;15.70;99.90;;;;;;5027551;28;19925;-70
2022/10/21 09:47:19;;;;;;;;;;;15.80;99.90;;;;;;4981786;28;184579;-69
2022/10/21 09:49:46;;;;;;;;;;;15.80;99.90;;;;;;5034108;28;19943;-69
2022/10/21 09:52:13;;;;;;;;;;;15.90;99.90;;;;;;4971172;28;206767;-69
2022/10/21 09:54:40;;;;;;;;;;;16.00;99.90;;;;;;5043286;28;19925;-70
2022/10/21 09:57:09;;;;;;;;;;;16.00;99.90;;;;;;4979004;28;208669;-68
2022/10/21 09:59:48;;;;;;;;;;;16.20;99.90;;;;;;5015446;28;19921;-69
2022/10/21 10:02:14;;;;;;;;;;;16.10;99.90;;;;;;4972169;28;211416;-71
2022/10/21 10:04:40;;;;;;;;;;;16.20;99.90;;;;;;5022699;28;20301;-70
2022/10/21 10:07:24;;;;;;;;;;;16.20;99.90;;;;;;4979814;28;155225;-71
2022/10/21 10:09:50;;;;;;;;;;;16.20;99.90;;;;;;5027939;28;20297;-71
2022/10/21 10:12:20;;;;;;;;;;;16.20;99.90;;;;;;4988516;28;127719;-71
2022/10/21 10:14:46;;;;;;;;;;;16.20;99.90;;;;;;5021869;28;19928;-70
2022/10/21 10:17:26;;;;;;;;;;;16.20;99.90;;;;;;4983088;28;208683;-70
2022/10/21 10:20:04;;;;;;;;;;;16.30;99.90;;;;;;5026860;28;19917;-70
2022/10/21 10:22:30;;;;;;;;;;;16.30;99.90;;;;;;4979724;28;208619;-70
2022/10/21 10:25:06;;;;;;;;;;;16.40;99.90;;;;;;5032286;28;20386;-71
2022/10/21 10:27:31;;;;;;;;;;;16.40;99.90;;;;;;5002102;28;211547;-71
2022/10/21 10:29:59;;;;;;;;;;;16.50;99.90;;;;;;5023499;28;19939;-69
2022/10/21 10:32:28;;;;;;;;;;;16.50;99.90;;;;;;4979139;28;208549;-71
2022/10/21 10:34:55;;;;;;;;;;;16.70;99.90;;;;;;5028178;28;19921;-70
2022/10/21 10:37:23;;;;;;;;;;;16.70;99.90;;;;;;4964040;28;115424;-71
2022/10/21 10:39:50;;;;;;;;;;;16.70;99.90;;;;;;5027576;28;20291;-71
2022/10/21 10:42:24;;;;;;;;;;;16.80;99.90;;;;;;4983065;28;50548;-71
2022/10/21 10:44:51;;;;;;;;;;;16.80;99.90;;;;;;5048421;28;19925;-72
2022/10/21 10:47:21;;;;;;;;;;;16.80;99.90;;;;;;4970154;28;208886;-70
2022/10/21 10:49:48;;;;;;;;;;;16.90;99.90;;;;;;5002978;28;19917;-71
2022/10/21 10:52:20;;;;;;;;;;;17.00;99.90;;;;;;4968792;28;163094;-72
2022/10/21 10:54:46;;;;;;;;;;;17.00;99.90;;;;;;5016935;28;19924;-71
2022/10/21 10:57:14;;;;;;;;;;;17.00;99.90;;;;;;4975178;28;142336;-71
2022/10/21 10:59:43;;;;;;;;;;;17.00;99.90;;;;;;5015318;28;19932;-73
2022/10/21 11:02:09;;;;;;;;;;;17.10;99.90;;;;;;4962618;28;142931;-72
2022/10/21 11:04:53;;;;;;;;;;;17.20;99.90;;;;;;4990948;28;19935;-71
2022/10/21 11:07:28;;;;;;;;;;;17.20;99.90;;;;;;4980856;28;156750;-71
2022/10/21 11:09:57;;;;;;;;;;;17.20;99.90;;;;;;5046163;28;19925;-70
2022/10/21 11:12:25;;;;;;;;;;;17.30;99.90;;;;;;4975727;28;223936;-69
2022/10/21 11:14:55;;;;;;;;;;;17.20;99.90;;;;;;5003839;28;21563;-70
2022/10/21 11:17:28;;;;;;;;;;;17.30;99.90;;;;;;4978673;28;208446;-69
2022/10/21 11:20:01;;;;;;;;;;;17.30;99.90;;;;;;5023911;28;19917;-69
2022/10/21 11:22:40;;;;;;;;;;;17.30;99.90;;;;;;5006022;28;211493;-69
2022/10/21 11:25:23;;;;;;;;;;;17.40;99.90;;;;;;5024134;28;19928;-70
2022/10/21 11:28:08;;;;;;;;;;;17.40;99.90;;;;;;4972019;28;207078;-69
2022/10/21 11:30:57;;;;;;;;;;;17.40;99.90;;;;;;5014371;28;20302;-70
2022/10/21 11:33:36;;;;;;;;;;;17.40;99.90;;;;;;4954195;28;206265;-69
2022/10/21 11:36:06;;;;;;;;;;;17.40;99.90;;;;;;5011711;28;19917;-69
2022/10/21 11:38:35;;;;;;;;;;;17.40;99.90;;;;;;4980072;28;209783;-70
2022/10/21 11:41:07;;;;;;;;;;;17.60;99.90;;;;;;5022038;28;19936;-68
2022/10/21 11:43:51;;;;;;;;;;;17.70;99.90;;;;;;4965672;28;144015;-69
2022/10/21 11:46:17;;;;;;;;;;;17.70;99.90;;;;;;5038272;28;20464;-68
2022/10/21 11:48:48;;;;;;;;;;;17.60;99.90;;;;;;4971602;28;145563;-69
2022/10/21 11:51:14;;;;;;;;;;;17.60;99.90;;;;;;5040000;28;19924;-69
2022/10/21 11:53:58;;;;;;;;;;;17.60;99.90;;;;;;4976116;28;173593;-69
2022/10/21 11:56:42;;;;;;;;;;;17.50;99.90;;;;;;5040919;28;19928;-69
2022/10/21 11:59:26;;;;;;;;;;;17.60;99.90;;;;;;4940151;28;209895;-70
2022/10/21 12:01:59;;;;;;;;;;;17.50;99.90;;;;;;4951699;28;156605;-70
2022/10/21 12:04:42;;;;;;;;;;;17.50;99.90;;;;;;5009214;28;19932;-70
2022/10/21 12:07:17;;;;;;;;;;;17.50;99.90;;;;;;4989565;28;208143;-68
2022/10/21 12:09:47;;;;;;;;;;;17.50;99.90;;;;;;5024406;28;19925;-69
2022/10/21 12:12:15;;;;;;;;;;;17.60;99.90;;;;;;4979143;28;150647;-69
2022/10/21 12:14:49;;;;;;;;;;;17.50;99.90;;;;;;5036845;28;19924;-70
2022/10/21 12:17:17;;;;;;;;;;;17.60;99.90;;;;;;4981312;28;98435;-68
2022/10/21 12:20:03;;;;;;;;;;;17.60;99.90;;;;;;5026615;28;19916;-69
2022/10/21 12:22:30;;;;;;;;;;;17.50;99.90;;;;;;4982250;28;205427;-69
2022/10/21 12:25:00;;;;;;;;;;;17.60;99.90;;;;;;5025889;28;19929;-69
2022/10/21 12:27:31;;;;;;;;;;;17.60;99.90;;;;;;4989986;28;207868;-69
2022/10/21 12:30:09;;;;;;;;;;;17.50;99.90;;;;;;5024885;28;19917;-69
2022/10/21 12:32:53;;;;;;;;;;;17.50;99.90;;;;;;4963744;28;207787;-69
2022/10/21 12:35:24;;;;;;;;;;;17.50;99.90;;;;;;5006021;28;19924;-68
2022/10/21 12:37:50;;;;;;;;;;;17.50;99.90;;;;;;4984105;28;136693;-69
2022/10/21 12:40:32;;;;;;;;;;;17.50;99.90;;;;;;5026434;28;20287;-69
2022/10/21 12:42:59;;;;;;;;;;;17.40;99.90;;;;;;4999655;28;102756;-70
2022/10/21 12:45:25;;;;;;;;;;;17.40;99.90;;;;;;5022845;28;19936;-68
2022/10/21 12:47:51;;;;;;;;;;;17.40;99.90;;;;;;5003723;28;191664;-68
2022/10/21 12:50:28;;;;;;;;;;;17.40;99.90;;;;;;5018999;28;19921;-69
2022/10/21 12:53:06;;;;;;;;;;;17.30;99.90;;;;;;4967297;28;208176;-68
2022/10/21 12:55:39;;;;;;;;;;;17.30;99.90;;;;;;5045688;28;19944;-68
2022/10/21 12:58:25;;;;;;;;;;;17.20;99.90;;;;;;5014791;28;122298;-68
2022/10/21 13:00:52;;;;;;;;;;;17.20;99.90;;;;;;5063090;28;19924;-68
2022/10/21 13:03:20;;;;;;;;;;;17.30;99.90;;;;;;4974882;28;174180;-69
2022/10/21 13:05:46;;;;;;;;;;;17.30;99.90;;;;;;5018555;28;19932;-69
2022/10/21 13:08:13;;;;;;;;;;;17.30;99.90;;;;;;4981974;28;109863;-69
2022/10/21 13:10:39;;;;;;;;;;;17.30;99.90;;;;;;5025787;28;19921;-69
2022/10/21 13:13:23;;;;;;;;;;;17.40;99.90;;;;;;5010411;28;207409;-68
2022/10/21 13:15:49;;;;;;;;;;;17.40;99.90;;;;;;5023365;28;19918;-68
2022/10/21 13:18:35;;;;;;;;;;;17.30;99.90;;;;;;4960993;28;214200;-69
2022/10/21 13:21:01;;;;;;;;;;;17.40;99.90;;;;;;5023925;28;19921;-71
2022/10/21 13:23:30;;;;;;;;;;;17.30;99.90;;;;;;4983385;28;158304;-69
2022/10/21 13:26:04;;;;;;;;;;;17.40;99.90;;;;;;5026305;28;19936;-69
2022/10/21 13:28:30;;;;;;;;;;;17.40;99.90;;;;;;4977491;28;201499;-69
2022/10/21 13:30:59;;;;;;;;;;;17.40;99.90;;;;;;5004098;28;20637;-69
2022/10/21 13:33:30;;;;;;;;;;;17.40;99.90;;;;;;4974083;28;148287;-70
2022/10/21 13:36:00;;;;;;;;;;;17.40;99.90;;;;;;5027662;28;20317;-69
2022/10/21 13:38:28;;;;;;;;;;;17.40;99.90;;;;;;4939359;28;206632;-69
2022/10/21 13:40:56;;;;;;;;;;;17.40;99.90;;;;;;5015399;28;19925;-68
2022/10/21 13:43:29;;;;;;;;;;;17.40;99.90;;;;;;4953851;28;225825;-69
2022/10/21 13:46:14;;;;;;;;;;;17.50;99.90;;;;;;5024149;28;19928;-69
2022/10/21 13:48:41;;;;;;;;;;;18.00;99.90;;;;;;4961426;28;206644;-69
2022/10/21 13:51:17;;;;;;;;;;;18.10;99.90;;;;;;5009708;28;19921;-68
2022/10/21 13:53:44;;;;;;;;;;;18.10;99.90;;;;;;4967015;28;207606;-69
2022/10/21 13:56:24;;;;;;;;;;;18.20;99.90;;;;;;5024716;28;19917;-67
2022/10/21 13:58:51;;;;;;;;;;;18.20;99.90;;;;;;4951429;28;121725;-68
2022/10/21 14:01:20;;;;;;;;;;;18.20;99.90;;;;;;5021460;28;19924;-68
2022/10/21 14:03:47;;;;;;;;;;;18.10;99.90;;;;;;4983035;28;207386;-67
2022/10/21 14:06:35;;;;;;;;;;;18.10;99.90;;;;;;5025249;28;19929;-68
2022/10/21 14:09:02;;;;;;;;;;;18.20;99.90;;;;;;4954503;28;213355;-68